Time;durP1;ratioP1;P1;durP2;ratioP2;P2;SDS_P1;SDS_P2;PMS_P1;PMS_P2;Temp;Humidity;BMP_temperature;BMP_pressure;BME280_temperature;BME280_humidity;BME280_pressure;Samples;Min_cycle;Max_cycle;Signal;HPM_P1;HPM_P2
2023/01/08 00:00:16;;;;;;;12.68;5.03;;;;;;;-5.72;68.35;101723.08;1652466;86;21052;-50
2023/01/08 00:02:47;;;;;;;11.70;5.37;;;;;;;-5.69;68.18;101721.16;1744397;81;21449;-50
2023/01/08 00:05:17;;;;;;;12.98;5.78;;;;;;;-5.72;68.10;101730.62;1720272;83;21013;-50
2023/01/08 00:07:46;;;;;;;12.00;5.42;;;;;;;-5.78;68.11;101722.39;1720228;83;21040;-50
2023/01/08 00:10:16;;;;;;;13.40;6.07;;;;;;;-5.80;68.31;101714.04;1710055;82;21045;-51
2023/01/08 00:12:49;;;;;;;11.25;5.12;;;;;;;-5.86;68.25;101723.59;1707043;84;21144;-51
2023/01/08 00:15:20;;;;;;;13.35;5.60;;;;;;;-5.87;68.42;101720.52;1707001;84;21014;-50
2023/01/08 00:17:50;;;;;;;13.78;5.67;;;;;;;-5.89;68.40;101724.58;1707122;84;20970;-50
2023/01/08 00:20:19;;;;;;;9.38;5.17;;;;;;;-5.87;68.39;101718.72;1707054;84;21002;-50
2023/01/08 00:22:49;;;;;;;12.25;5.47;;;;;;;-5.90;68.34;101718.01;1683419;84;21101;-50
2023/01/08 00:25:19;;;;;;;11.57;5.15;;;;;;;-5.88;68.50;101720.12;1707065;84;21467;-50
2023/01/08 00:27:49;;;;;;;13.73;5.47;;;;;;;-5.84;68.49;101724.44;1707147;84;20990;-49
2023/01/08 00:30:18;;;;;;;11.55;5.03;;;;;;;-5.83;68.20;101724.38;1707033;84;21053;-49
2023/01/08 00:32:47;;;;;;;13.53;5.03;;;;;;;-5.85;68.21;101722.23;1707225;84;21014;-50
2023/01/08 00:35:17;;;;;;;11.75;5.35;;;;;;;-5.82;68.21;101726.58;1683127;84;21100;-50
2023/01/08 00:37:49;;;;;;;13.25;5.78;;;;;;;-5.82;68.19;101731.45;1707058;84;21045;-49
2023/01/08 00:40:18;;;;;;;11.85;5.25;;;;;;;-5.79;68.26;101727.33;1707133;84;21002;-50
2023/01/08 00:42:49;;;;;;;12.73;5.92;;;;;;;-5.73;68.18;101726.67;1706898;84;21362;-49
2023/01/08 00:45:18;;;;;;;11.65;5.70;;;;;;;-5.74;68.23;101725.80;1707006;84;21010;-50
2023/01/08 00:47:47;;;;;;;13.25;5.62;;;;;;;-5.68;68.30;101731.36;1706892;84;21417;-50
2023/01/08 00:50:17;;;;;;;14.60;5.70;;;;;;;-5.68;68.28;101726.02;1707034;84;20958;-49
2023/01/08 00:52:46;;;;;;;13.55;5.90;;;;;;;-5.71;68.33;101726.15;1706974;84;20985;-50
2023/01/08 00:55:18;;;;;;;14.13;5.45;;;;;;;-5.71;68.36;101723.02;1706957;84;21020;-49
2023/01/08 00:57:47;;;;;;;11.95;5.65;;;;;;;-5.70;68.35;101723.88;1706897;84;21021;-50
2023/01/08 01:00:18;;;;;;;13.08;5.60;;;;;;;-5.70;68.12;101717.21;1706994;84;21029;-51
2023/01/08 01:02:47;;;;;;;15.58;5.97;;;;;;;-5.77;68.08;101715.25;1706703;84;21014;-50
2023/01/08 01:05:17;;;;;;;15.45;6.33;;;;;;;-5.82;68.19;101722.58;1707021;84;21013;-50
2023/01/08 01:07:49;;;;;;;16.23;6.42;;;;;;;-5.89;68.43;101715.24;1706934;84;21009;-51
2023/01/08 01:10:19;;;;;;;15.25;5.85;;;;;;;-5.89;68.58;101712.58;1706979;82;21009;-50
2023/01/08 01:12:49;;;;;;;11.97;5.60;;;;;;;-5.90;68.48;101707.33;1706738;84;21001;-49
2023/01/08 01:15:19;;;;;;;13.22;5.37;;;;;;;-5.93;68.62;101707.45;1706980;84;20966;-50
2023/01/08 01:17:48;;;;;;;12.63;5.58;;;;;;;-5.91;68.70;101706.93;1707347;84;21437;-51
2023/01/08 01:20:20;;;;;;;13.40;5.72;;;;;;;-5.89;68.56;101705.06;1706974;84;21005;-49
2023/01/08 01:22:50;;;;;;;15.10;5.50;;;;;;;-5.95;68.40;101709.31;1706931;84;21735;-51
2023/01/08 01:25:19;;;;;;;12.40;5.62;;;;;;;-5.98;68.47;101708.09;1707083;84;21092;-50
2023/01/08 01:27:49;;;;;;;14.45;5.90;;;;;;;-6.00;68.56;101707.30;1650290;87;21082;-51
2023/01/08 01:30:19;;;;;;;14.93;6.00;;;;;;;-6.03;68.46;101702.08;1650549;86;21082;-50
2023/01/08 01:32:49;;;;;;;17.12;6.50;;;;;;;-6.09;68.22;101713.39;1650199;87;21086;-51
2023/01/08 01:35:19;;;;;;;18.37;5.83;;;;;;;-6.18;68.24;101709.75;1650564;87;21027;-50
2023/01/08 01:37:49;;;;;;;13.22;6.25;;;;;;;-6.22;68.42;101701.92;1650403;87;21015;-50
2023/01/08 01:40:20;;;;;;;12.43;5.28;;;;;;;-6.25;68.40;101717.58;1650684;87;21059;-50
2023/01/08 01:42:49;;;;;;;14.10;5.45;;;;;;;-6.27;68.55;101714.10;1650408;87;21074;-51
2023/01/08 01:45:22;;;;;;;17.87;6.70;;;;;;;-6.21;68.72;101714.33;1662949;84;21018;-51
2023/01/08 01:48:03;;;;;;;15.13;6.03;;;;;;;-6.18;68.65;101715.08;1707003;84;21010;-51
2023/01/08 01:50:40;;;;;;;13.90;5.80;;;;;;;-6.19;68.74;101712.01;1684288;84;21021;-51
2023/01/08 01:53:19;;;;;;;14.00;5.53;;;;;;;-6.16;68.64;101705.22;1707366;84;20993;-50
2023/01/08 01:55:47;;;;;;;15.93;5.92;;;;;;;-6.19;68.31;101706.67;1706987;84;21044;-51
2023/01/08 01:58:24;;;;;;;11.97;5.53;;;;;;;-6.21;68.21;101709.00;1682998;84;21072;-49
2023/01/08 02:00:58;;;;;;;13.83;5.70;;;;;;;-6.21;68.25;101707.20;1683886;84;21049;-50
2023/01/08 02:03:32;;;;;;;14.45;5.90;;;;;;;-6.25;68.11;101713.58;1707217;84;21029;-50
2023/01/08 02:06:38;;;;;;;12.37;5.70;;;;;;;-6.25;68.17;101714.05;1707039;84;21025;-50
2023/01/08 02:09:34;;;;;;;14.85;5.80;;;;;;;-6.30;68.18;101698.22;1707574;83;21145;-50
2023/01/08 02:12:27;;;;;;;15.65;5.95;;;;;;;-6.30;68.23;101712.88;1727130;82;21036;-49
2023/01/08 02:15:33;;;;;;;15.58;6.33;;;;;;;-6.37;68.37;101707.84;1727182;83;21012;-51
2023/01/08 02:18:20;;;;;;;23.90;6.97;;;;;;;-6.46;68.65;101706.39;1727067;83;20997;-50
2023/01/08 02:21:06;;;;;;;16.97;6.40;;;;;;;-6.49;68.74;101710.51;1726972;83;21033;-49
2023/01/08 02:24:02;;;;;;;19.12;6.05;;;;;;;-6.50;68.81;101712.30;1727253;83;21432;-50
2023/01/08 02:26:35;;;;;;;16.30;5.87;;;;;;;-6.48;69.07;101713.12;1689207;83;21526;-50
2023/01/08 02:29:10;;;;;;;16.57;6.37;;;;;;;-6.42;69.04;101709.35;1727117;83;21444;-51
2023/01/08 02:31:40;;;;;;;14.68;5.62;;;;;;;-6.42;69.02;101710.69;1727194;82;20996;-49
2023/01/08 02:34:10;;;;;;;15.13;5.58;;;;;;;-6.39;68.94;101719.90;1727225;83;21056;-50
2023/01/08 02:36:50;;;;;;;15.15;5.87;;;;;;;-6.38;68.89;101720.77;1708923;83;21080;-49
2023/01/08 02:39:54;;;;;;;15.50;5.97;;;;;;;-6.38;68.88;101712.77;1726895;83;21029;-49
2023/01/08 02:42:46;;;;;;;15.05;5.72;;;;;;;-6.41;68.84;101717.29;1727031;83;21021;-49
2023/01/08 02:45:42;;;;;;;16.80;5.95;;;;;;;-6.45;68.75;101720.12;1727104;83;21017;-50
2023/01/08 02:48:39;;;;;;;18.50;6.25;;;;;;;-6.50;68.97;101709.64;1701380;83;21514;-50
2023/01/08 02:51:17;;;;;;;12.10;4.70;;;;;;;-6.46;69.11;101710.39;1708656;83;21046;-51
2023/01/08 02:53:48;;;;;;;15.00;5.40;;;;;;;-6.43;69.10;101719.61;1726930;83;21032;-50
2023/01/08 02:56:24;;;;;;;17.00;5.42;;;;;;;-6.45;69.03;101721.46;1708799;83;21145;-49
2023/01/08 02:58:53;;;;;;;12.58;5.05;;;;;;;-6.43;69.02;101715.61;1726929;83;21423;-50
2023/01/08 03:01:24;;;;;;;17.40;6.78;;;;;;;-6.46;69.01;101711.73;1726891;83;21017;-49
2023/01/08 03:03:59;;;;;;;19.45;6.92;;;;;;;-6.47;69.06;101715.31;1709099;83;21017;-49
2023/01/08 03:06:28;;;;;;;16.77;5.87;;;;;;;-6.45;69.16;101718.80;1726879;83;21029;-50
2023/01/08 03:08:59;;;;;;;14.33;5.87;;;;;;;-6.45;69.17;101716.13;1708634;83;21008;-50
2023/01/08 03:11:33;;;;;;;16.70;6.35;;;;;;;-6.45;69.18;101718.80;1708815;83;21353;-49
2023/01/08 03:14:17;;;;;;;17.20;6.40;;;;;;;-6.51;69.33;101717.66;1726933;83;21521;-50
2023/01/08 03:16:50;;;;;;;20.65;7.12;;;;;;;-6.48;69.49;101715.78;1727074;83;21452;-49
2023/01/08 03:19:29;;;;;;;15.13;5.90;;;;;;;-6.46;69.49;101714.39;1727063;83;21008;-50
2023/01/08 03:21:58;;;;;;;18.30;6.37;;;;;;;-6.41;69.49;101703.95;1726853;83;21057;-51
2023/01/08 03:24:32;;;;;;;15.70;5.80;;;;;;;-6.38;69.39;101692.31;1659150;86;21526;-57
2023/01/08 03:27:04;;;;;;;18.15;6.47;;;;;;;-6.38;69.41;101699.44;1676303;85;21077;-51
2023/01/08 03:29:33;;;;;;;16.73;6.17;;;;;;;-6.44;69.48;101709.88;1659565;86;21110;-50
2023/01/08 03:32:08;;;;;;;16.45;6.72;;;;;;;-6.44;69.63;101705.88;1676420;85;21121;-49
2023/01/08 03:34:40;;;;;;;16.52;6.97;;;;;;;-6.43;69.61;101705.81;1659212;86;21058;-50
2023/01/08 03:37:09;;;;;;;20.88;6.75;;;;;;;-6.41;69.76;101707.09;1676210;85;21051;-49
2023/01/08 03:39:51;;;;;;;16.05;6.50;;;;;;;-6.39;69.86;101711.90;1659442;85;21090;-49
2023/01/08 03:42:19;;;;;;;13.43;5.78;;;;;;;-6.38;69.91;101706.10;1694598;83;21077;-50
2023/01/08 03:44:49;;;;;;;16.32;6.40;;;;;;;-6.36;69.94;101702.91;1690176;83;21061;-49
2023/01/08 03:47:22;;;;;;;13.05;6.03;;;;;;;-6.35;70.03;101712.19;1689983;85;21063;-51
2023/01/08 03:49:51;;;;;;;19.77;6.20;;;;;;;-6.37;70.11;101711.84;1709460;83;21033;-51
2023/01/08 03:52:24;;;;;;;14.35;6.22;;;;;;;-6.42;70.28;101708.02;1660614;86;21064;-49
2023/01/08 03:54:55;;;;;;;17.50;6.75;;;;;;;-6.40;70.42;101708.83;1692505;85;21044;-50
2023/01/08 03:57:24;;;;;;;17.50;6.67;;;;;;;-6.39;70.59;101711.90;1706876;83;21041;-50
2023/01/08 03:59:53;;;;;;;16.30;6.03;;;;;;;-6.31;70.72;101715.61;1706763;84;21064;-50
2023/01/08 04:02:24;;;;;;;15.95;6.53;;;;;;;-6.27;70.71;101704.77;1706656;84;21495;-50
2023/01/08 04:04:53;;;;;;;14.80;6.20;;;;;;;-6.23;70.73;101706.39;1706791;83;21765;-50
2023/01/08 04:07:22;;;;;;;18.90;6.55;;;;;;;-6.25;70.71;101710.91;1706883;83;21017;-49
2023/01/08 04:09:52;;;;;;;18.80;6.80;;;;;;;-6.26;70.79;101706.50;1690365;82;21065;-50
2023/01/08 04:12:23;;;;;;;19.00;6.58;;;;;;;-6.20;70.97;101707.60;1632401;86;21055;-49
2023/01/08 04:14:53;;;;;;;19.77;6.95;;;;;;;-6.13;70.92;101710.91;1706974;84;21021;-49
2023/01/08 04:17:24;;;;;;;21.07;7.10;;;;;;;-6.11;70.75;101715.72;1692736;85;21065;-50
2023/01/08 04:19:53;;;;;;;17.87;6.50;;;;;;;-6.10;70.85;101711.66;1729803;83;21463;-50
2023/01/08 04:22:22;;;;;;;19.52;7.40;;;;;;;-6.09;70.79;101714.73;1703738;83;21068;-49
2023/01/08 04:24:53;;;;;;;17.12;6.53;;;;;;;-6.08;70.78;101716.93;1729582;83;21052;-49
2023/01/08 04:27:23;;;;;;;14.28;6.15;;;;;;;-6.05;70.83;101707.94;1729969;82;21032;-50
2023/01/08 04:29:53;;;;;;;18.17;7.12;;;;;;;-6.05;70.78;101705.27;1729634;83;21522;-49
2023/01/08 04:32:24;;;;;;;19.92;7.75;;;;;;;-6.04;70.88;101706.55;1730045;83;21008;-50
2023/01/08 04:34:53;;;;;;;17.37;7.12;;;;;;;-6.03;70.93;101698.07;1730033;83;21035;-49
2023/01/08 04:37:24;;;;;;;17.65;6.58;;;;;;;-6.00;71.05;101707.30;1729599;82;21027;-50
2023/01/08 04:39:54;;;;;;;20.43;6.92;;;;;;;-5.99;71.07;101711.70;1729866;83;21039;-49
2023/01/08 04:42:24;;;;;;;17.80;6.35;;;;;;;-5.98;71.02;101710.77;1703075;83;21455;-51
2023/01/08 04:44:54;;;;;;;15.68;6.42;;;;;;;-5.94;71.08;101710.59;1729845;83;21255;-48
2023/01/08 04:47:24;;;;;;;19.85;7.25;;;;;;;-5.90;71.05;101712.20;1729828;82;21530;-51
2023/01/08 04:49:53;;;;;;;17.40;6.90;;;;;;;-5.92;70.89;101711.39;1729767;82;21417;-51
2023/01/08 04:52:23;;;;;;;17.50;6.92;;;;;;;-5.89;71.03;101718.41;1729928;83;21024;-50
2023/01/08 04:54:53;;;;;;;21.02;7.03;;;;;;;-5.88;71.02;101709.44;1729817;82;21506;-49
2023/01/08 04:57:23;;;;;;;16.97;7.50;;;;;;;-5.85;70.93;101719.56;1730038;83;20973;-49
2023/01/08 04:59:53;;;;;;;21.15;7.28;;;;;;;-5.85;70.90;101720.89;1730025;82;21464;-49
2023/01/08 05:02:23;;;;;;;17.25;6.67;;;;;;;-5.89;70.87;101709.07;1730114;82;21005;-50
2023/01/08 05:04:54;;;;;;;19.52;7.40;;;;;;;-5.90;70.97;101711.34;1729867;82;21036;-49
2023/01/08 05:07:25;;;;;;;22.02;7.33;;;;;;;-5.91;71.02;101713.59;1729826;83;21005;-49
2023/01/08 05:09:56;;;;;;;16.97;7.10;;;;;;;-5.95;71.11;101718.19;1729799;83;21008;-50
2023/01/08 05:12:27;;;;;;;19.52;7.47;;;;;;;-5.97;71.15;101724.52;1730017;82;21020;-50
2023/01/08 05:14:57;;;;;;;18.20;7.03;;;;;;;-5.99;71.36;101731.71;1729838;83;21016;-50
2023/01/08 05:17:27;;;;;;;19.02;7.65;;;;;;;-5.95;71.43;101730.66;1730081;83;20961;-51
2023/01/08 05:19:57;;;;;;;22.00;7.92;;;;;;;-5.89;71.49;101734.42;1729858;83;21433;-50
2023/01/08 05:22:27;;;;;;;20.48;7.92;;;;;;;-5.83;71.33;101734.17;1703241;83;21028;-52
2023/01/08 05:24:56;;;;;;;23.77;8.38;;;;;;;-5.79;71.27;101735.80;1730125;83;21449;-50
2023/01/08 05:27:25;;;;;;;22.90;8.78;;;;;;;-5.76;71.14;101725.00;1703609;83;21037;-50
2023/01/08 05:29:55;;;;;;;22.87;8.65;;;;;;;-5.79;70.92;101724.66;1703801;83;21514;-50
2023/01/08 05:32:26;;;;;;;19.82;7.78;;;;;;;-5.78;70.93;101722.85;1729796;83;21013;-50
2023/01/08 05:34:55;;;;;;;21.70;7.55;;;;;;;-5.77;70.87;101731.27;1729878;83;20993;-50
2023/01/08 05:37:26;;;;;;;20.95;8.33;;;;;;;-5.82;70.96;101729.25;1729946;82;21028;-50
2023/01/08 05:39:55;;;;;;;20.35;7.35;;;;;;;-5.79;71.04;101730.45;1730073;83;21416;-50
2023/01/08 05:42:24;;;;;;;17.35;7.22;;;;;;;-5.75;71.05;101726.27;1729773;82;21459;-50
2023/01/08 05:44:56;;;;;;;21.27;8.00;;;;;;;-5.73;70.84;101728.01;1730082;83;21072;-51
2023/01/08 05:47:31;;;;;;;22.85;8.98;;;;;;;-5.73;70.90;101736.02;1729853;83;21072;-50
2023/01/08 05:50:03;;;;;;;19.80;7.30;;;;;;;-5.70;70.71;101739.90;1729966;83;21520;-49
2023/01/08 05:52:33;;;;;;;18.57;7.92;;;;;;;-5.72;70.70;101739.95;1703576;83;21244;-50
2023/01/08 05:55:02;;;;;;;19.35;8.55;;;;;;;-5.73;70.60;101742.22;1729856;82;21465;-49
2023/01/08 05:57:31;;;;;;;27.85;10.18;;;;;;;-5.76;70.66;101735.67;1730160;82;21048;-50
2023/01/08 06:00:00;;;;;;;23.30;7.92;;;;;;;-5.78;70.64;101745.08;1729784;83;21466;-50
2023/01/08 06:02:32;;;;;;;19.05;7.70;;;;;;;-5.75;70.75;101752.09;1728546;83;21088;-50
2023/01/08 06:05:02;;;;;;;23.52;9.03;;;;;;;-5.70;70.77;101755.45;1730055;82;20997;-50
2023/01/08 06:07:32;;;;;;;20.92;7.62;;;;;;;-5.66;70.74;101748.19;1703752;83;21417;-49
2023/01/08 06:10:01;;;;;;;26.23;7.42;;;;;;;-5.64;70.58;101750.33;1703105;83;21024;-51
2023/01/08 06:12:31;;;;;;;20.12;7.50;;;;;;;-5.64;70.45;101749.00;1709362;83;21054;-52
2023/01/08 06:15:03;;;;;;;19.92;7.08;;;;;;;-5.67;70.47;101745.11;1683799;84;21029;-49
2023/01/08 06:17:35;;;;;;;18.32;7.58;;;;;;;-5.67;70.58;101753.99;1707139;84;21061;-50
2023/01/08 06:20:06;;;;;;;19.37;7.10;;;;;;;-5.64;70.60;101747.20;1707119;84;21029;-50
2023/01/08 06:22:36;;;;;;;18.23;6.78;;;;;;;-5.63;70.60;101752.07;1707011;84;21053;-55
2023/01/08 06:25:07;;;;;;;19.48;7.40;;;;;;;-5.64;70.52;101757.88;1707189;84;21009;-48
2023/01/08 06:27:37;;;;;;;16.25;6.67;;;;;;;-5.63;70.62;101754.27;1707007;84;20982;-50
2023/01/08 06:30:08;;;;;;;21.17;7.20;;;;;;;-5.61;70.57;101748.87;1706963;84;21021;-50
2023/01/08 06:32:38;;;;;;;18.05;7.37;;;;;;;-5.63;70.58;101743.59;1706936;84;20958;-50
2023/01/08 06:35:09;;;;;;;23.47;8.00;;;;;;;-5.59;70.62;101742.54;1707044;84;21397;-49
2023/01/08 06:37:38;;;;;;;21.48;7.85;;;;;;;-5.58;70.53;101742.94;1707096;84;21089;-50
2023/01/08 06:40:10;;;;;;;18.62;7.50;;;;;;;-5.53;70.52;101741.42;1706935;84;21022;-50
2023/01/08 06:42:42;;;;;;;20.72;7.33;;;;;;;-5.56;70.33;101740.21;1706946;84;21525;-50
2023/01/08 06:45:11;;;;;;;22.15;7.53;;;;;;;-5.59;70.41;101751.02;1707190;84;21046;-50
2023/01/08 06:47:42;;;;;;;15.98;6.78;;;;;;;-5.60;70.50;101749.27;1683475;84;20982;-50
2023/01/08 06:50:11;;;;;;;20.32;7.20;;;;;;;-5.60;70.61;101744.80;1706987;84;21002;-50
2023/01/08 06:52:40;;;;;;;19.82;6.92;;;;;;;-5.60;70.64;101750.14;1706898;84;21425;-50
2023/01/08 06:55:10;;;;;;;18.45;7.05;;;;;;;-5.59;70.71;101738.53;1706993;84;21465;-52
2023/01/08 06:57:40;;;;;;;21.30;7.72;;;;;;;-5.57;70.73;101744.69;1706966;84;21037;-50
2023/01/08 07:00:13;;;;;;;24.10;7.40;;;;;;;-5.57;70.70;101747.35;1707005;84;20974;-50
2023/01/08 07:02:42;;;;;;;17.87;7.15;;;;;;;-5.54;70.81;101752.56;1706973;84;21052;-51
2023/01/08 07:05:12;;;;;;;17.45;6.90;;;;;;;-5.55;70.69;101747.29;1707008;84;21021;-50
2023/01/08 07:07:41;;;;;;;16.65;6.22;;;;;;;-5.56;70.73;101749.09;1707131;84;21029;-49
2023/01/08 07:10:10;;;;;;;25.05;7.28;;;;;;;-5.56;70.91;101749.09;1706969;84;21041;-50
2023/01/08 07:12:41;;;;;;;17.00;6.70;;;;;;;-5.56;70.91;101749.09;1723033;83;21039;-51
2023/01/08 07:15:10;;;;;;;25.70;7.22;;;;;;;-5.51;70.86;101748.44;1726784;83;21044;-51
2023/01/08 07:17:39;;;;;;;19.40;6.95;;;;;;;-5.50;70.87;101748.84;1726904;83;21033;-50
2023/01/08 07:20:10;;;;;;;18.00;7.05;;;;;;;-5.46;70.93;101745.58;1727223;83;21052;-50
2023/01/08 07:22:39;;;;;;;17.25;7.12;;;;;;;-5.45;70.95;101741.52;1671982;84;21066;-49
2023/01/08 07:25:09;;;;;;;19.27;7.15;;;;;;;-5.41;70.99;101750.27;1695027;84;21054;-50
2023/01/08 07:27:39;;;;;;;17.75;6.47;;;;;;;-5.40;70.85;101748.00;1672312;85;21058;-49
2023/01/08 07:30:09;;;;;;;17.97;6.30;;;;;;;-5.44;70.86;101737.91;1671946;85;21050;-50
2023/01/08 07:32:43;;;;;;;17.82;7.35;;;;;;;-5.45;70.99;101739.30;1690737;83;21066;-49
2023/01/08 07:35:13;;;;;;;15.98;6.28;;;;;;;-5.42;71.18;101752.07;1690108;85;21520;-49
2023/01/08 07:37:43;;;;;;;18.50;7.12;;;;;;;-5.40;71.07;101741.79;1689764;84;21544;-50
2023/01/08 07:40:13;;;;;;;19.00;7.20;;;;;;;-5.39;71.16;101745.73;1690015;84;21419;-50
2023/01/08 07:42:44;;;;;;;15.45;7.12;;;;;;;-5.34;71.24;101740.20;1689672;85;21325;-49
2023/01/08 07:45:13;;;;;;;19.02;7.20;;;;;;;-5.31;71.19;101740.94;1689997;85;21026;-49
2023/01/08 07:47:42;;;;;;;17.02;6.83;;;;;;;-5.28;71.05;101751.97;1689984;84;21062;-50
2023/01/08 07:50:13;;;;;;;17.05;7.00;;;;;;;-5.30;70.92;101751.16;1689841;84;21039;-49
2023/01/08 07:52:43;;;;;;;20.02;6.65;;;;;;;-5.31;71.06;101756.09;1689857;85;21042;-51
2023/01/08 07:55:12;;;;;;;20.35;6.47;;;;;;;-5.30;70.98;101753.83;1709536;83;21499;-51
2023/01/08 07:57:42;;;;;;;20.70;7.80;;;;;;;-5.31;71.06;101744.08;1643592;86;21082;-50
2023/01/08 08:00:13;;;;;;;16.73;7.20;;;;;;;-5.26;71.15;101754.11;1709582;84;21445;-50
2023/01/08 08:02:43;;;;;;;14.95;5.65;;;;;;;-5.21;71.05;101750.31;1685964;84;21436;-49
2023/01/08 08:05:16;;;;;;;18.27;7.05;;;;;;;-5.15;70.86;101750.09;1709621;83;21060;-49
2023/01/08 08:07:46;;;;;;;16.65;6.45;;;;;;;-5.10;70.85;101759.24;1685866;84;21093;-50
2023/01/08 08:10:15;;;;;;;17.35;6.55;;;;;;;-5.07;70.51;101750.23;1709779;84;21057;-49
2023/01/08 08:12:45;;;;;;;19.73;6.42;;;;;;;-5.09;70.40;101753.43;1708129;84;21085;-49
2023/01/08 08:15:15;;;;;;;13.53;6.40;;;;;;;-5.12;70.35;101757.10;1707730;84;21053;-51
2023/01/08 08:17:48;;;;;;;21.37;7.37;;;;;;;-5.11;70.35;101756.17;1707666;84;21033;-50
2023/01/08 08:20:17;;;;;;;19.27;7.70;;;;;;;-5.07;70.34;101757.78;1707538;83;21041;-50
2023/01/08 08:22:46;;;;;;;19.52;7.15;;;;;;;-5.04;70.32;101757.64;1707429;84;21503;-50
2023/01/08 08:25:16;;;;;;;15.48;6.72;;;;;;;-4.98;70.25;101772.09;1707684;84;21068;-50
2023/01/08 08:27:45;;;;;;;21.57;6.60;;;;;;;-4.92;69.74;101762.47;1692748;84;21434;-51
2023/01/08 08:30:14;;;;;;;20.32;6.80;;;;;;;-4.92;69.74;101762.47;1729851;82;21072;-50
2023/01/08 08:32:43;;;;;;;14.43;6.35;;;;;;;-4.89;69.79;101763.67;1730024;83;21032;-50
2023/01/08 08:35:12;;;;;;;15.00;6.30;;;;;;;-4.86;69.60;101764.88;1730063;82;21101;-51
2023/01/08 08:37:41;;;;;;;16.32;6.50;;;;;;;-4.86;69.41;101755.98;1729787;82;21432;-49
2023/01/08 08:40:11;;;;;;;17.87;7.70;;;;;;;-4.86;69.28;101754.19;1729615;83;21017;-49
2023/01/08 08:42:42;;;;;;;19.02;6.30;;;;;;;-4.86;69.28;101754.19;1729880;82;21060;-50
2023/01/08 08:45:11;;;;;;;20.68;6.97;;;;;;;-4.82;69.45;101754.92;1729847;82;21031;-51
2023/01/08 08:47:43;;;;;;;18.32;6.17;;;;;;;-4.82;69.45;101754.92;1729719;83;21005;-50
2023/01/08 08:50:13;;;;;;;16.17;5.92;;;;;;;-4.77;69.19;101760.06;1729873;83;21044;-51
2023/01/08 08:52:44;;;;;;;16.60;6.55;;;;;;;-4.77;69.13;101747.57;1703705;83;21048;-49
2023/01/08 08:55:16;;;;;;;14.15;5.22;;;;;;;-4.77;69.13;101747.57;1686742;83;21555;-53
2023/01/08 08:57:46;;;;;;;15.58;5.30;;;;;;;-4.77;69.24;101743.56;1693601;83;21380;-51
2023/01/08 09:00:17;;;;;;;14.20;5.83;;;;;;;-4.76;69.37;101733.73;1710475;83;21035;-51
2023/01/08 09:02:46;;;;;;;16.85;6.08;;;;;;;-4.76;69.37;101733.73;1726345;83;21095;-51
2023/01/08 09:05:15;;;;;;;15.35;6.03;;;;;;;-4.76;69.35;101737.27;1642234;85;21067;-51
2023/01/08 09:07:45;;;;;;;18.87;6.80;;;;;;;-4.74;69.44;101743.42;1704742;84;21073;-50
2023/01/08 09:10:15;;;;;;;18.42;6.45;;;;;;;-4.76;69.47;101743.09;1664596;85;21165;-51
2023/01/08 09:12:45;;;;;;;14.38;6.67;;;;;;;-4.76;69.48;101741.75;1696445;84;21069;-52
2023/01/08 09:15:15;;;;;;;21.42;6.35;;;;;;;-4.73;69.68;101729.59;1702002;84;21080;-51
2023/01/08 09:17:44;;;;;;;16.80;6.15;;;;;;;-4.66;70.53;101735.06;1702028;84;21048;-51
2023/01/08 09:20:13;;;;;;;16.97;6.17;;;;;;;-4.59;70.17;101731.18;1701753;84;21063;-53
2023/01/08 09:22:43;;;;;;;15.50;6.33;;;;;;;-4.54;70.09;101727.86;1702331;84;21111;-51
2023/01/08 09:25:12;;;;;;;17.12;6.83;;;;;;;-4.53;69.82;101730.94;1678376;84;21063;-50
2023/01/08 09:27:43;;;;;;;17.82;6.37;;;;;;;-4.50;69.87;101733.01;1702089;84;20984;-51
2023/01/08 09:30:13;;;;;;;19.50;6.83;;;;;;;-4.43;69.75;101734.06;1701974;84;21081;-52
2023/01/08 09:32:43;;;;;;;17.30;8.10;;;;;;;-4.44;69.45;101729.66;1702253;83;21040;-52
2023/01/08 09:35:12;;;;;;;21.35;8.38;;;;;;;-4.47;69.43;101726.18;1657948;86;21046;-51
2023/01/08 09:37:42;;;;;;;17.70;7.05;;;;;;;-4.47;69.46;101720.83;1702383;84;21041;-51
2023/01/08 09:40:14;;;;;;;18.45;6.83;;;;;;;-4.45;69.35;101727.45;1673332;86;21093;-53
2023/01/08 09:42:44;;;;;;;22.98;6.92;;;;;;;-4.49;69.22;101720.50;1678658;84;21550;-51
2023/01/08 09:45:22;;;;;;;19.62;7.12;;;;;;;-4.49;69.47;101723.17;1673261;84;21516;-52
2023/01/08 09:47:51;;;;;;;25.77;7.15;;;;;;;-4.44;69.51;101715.81;1702296;84;21053;-55
2023/01/08 09:50:22;;;;;;;18.25;6.65;;;;;;;-4.44;69.51;101715.81;1702498;83;21088;-51
2023/01/08 09:52:51;;;;;;;19.25;7.17;;;;;;;-4.40;69.49;101719.21;1702282;84;21046;-51
2023/01/08 09:55:20;;;;;;;18.45;6.65;;;;;;;-4.37;69.48;101713.72;1701944;84;21045;-51
2023/01/08 09:57:50;;;;;;;19.27;6.92;;;;;;;-4.37;69.15;101711.05;1673370;86;21038;-52
2023/01/08 10:00:27;;;;;;;21.35;7.47;;;;;;;-4.42;69.28;101705.91;1702101;84;21038;-51
2023/01/08 10:02:56;;;;;;;22.83;7.83;;;;;;;-4.43;69.29;101709.52;1694150;84;21167;-51
2023/01/08 10:05:26;;;;;;;23.70;8.33;;;;;;;-4.43;69.36;101702.83;1668817;86;21039;-50
2023/01/08 10:07:55;;;;;;;18.05;6.78;;;;;;;-4.39;69.51;101707.11;1613296;88;21108;-51
2023/01/08 10:10:28;;;;;;;20.00;8.00;;;;;;;-4.24;69.55;101700.17;1645916;86;21681;-53
2023/01/08 10:12:58;;;;;;;26.55;8.13;;;;;;;-4.24;69.55;101700.17;1639521;86;21088;-51
2023/01/08 10:15:28;;;;;;;17.27;7.28;;;;;;;-4.17;69.45;101695.80;1655420;86;21076;-51
2023/01/08 10:18:07;;;;;;;19.25;7.33;;;;;;;-4.12;69.41;101697.39;1666840;86;21158;-53
2023/01/08 10:20:38;;;;;;;20.05;7.72;;;;;;;-4.09;68.93;101694.58;1666549;85;21042;-55
2023/01/08 10:23:21;;;;;;;16.12;7.53;;;;;;;-4.16;68.31;101692.19;1645895;86;21054;-53
2023/01/08 10:25:59;;;;;;;26.37;8.28;;;;;;;-4.24;68.38;101690.81;1666695;86;21217;-52
2023/01/08 10:28:34;;;;;;;21.10;7.95;;;;;;;-4.24;68.70;101696.16;1689099;84;21040;-52
2023/01/08 10:31:08;;;;;;;20.62;8.10;;;;;;;-4.19;68.72;101696.34;1700047;84;20985;-52
2023/01/08 10:33:48;;;;;;;27.20;8.35;;;;;;;-4.16;68.66;101689.98;1700277;84;21012;-51
2023/01/08 10:36:20;;;;;;;22.20;8.90;;;;;;;-4.07;68.58;101690.02;1673383;86;21054;-51
2023/01/08 10:38:59;;;;;;;22.60;8.60;;;;;;;-4.07;68.58;101690.02;1678776;84;21115;-52
2023/01/08 10:41:29;;;;;;;20.65;8.65;;;;;;;-4.06;68.57;101688.61;1678374;84;21067;-52
2023/01/08 10:44:04;;;;;;;24.23;8.93;;;;;;;-4.08;68.55;101680.25;1702064;84;21459;-52
2023/01/08 10:46:41;;;;;;;28.50;9.00;;;;;;;-4.09;68.57;101671.83;1702154;83;21091;-52
2023/01/08 10:49:19;;;;;;;24.43;8.65;;;;;;;-4.08;68.57;101678.44;1702210;84;21007;-52
2023/01/08 10:51:50;;;;;;;22.27;8.88;;;;;;;-4.05;68.71;101667.59;1701946;84;21444;-52
2023/01/08 10:54:35;;;;;;;23.60;10.23;;;;;;;-4.00;68.71;101668.70;1678870;84;21043;-51
2023/01/08 10:57:27;;;;;;;30.70;10.28;;;;;;;-3.92;68.61;101663.85;1678159;84;21497;-52
2023/01/08 10:59:57;;;;;;;22.48;9.20;;;;;;;-3.86;68.37;101660.91;1678741;84;21091;-53
2023/01/08 11:02:35;;;;;;;30.08;10.13;;;;;;;-3.86;68.37;101660.91;1676744;84;21075;-52
2023/01/08 11:05:09;;;;;;;25.90;10.80;;;;;;;-3.84;68.43;101667.05;1664628;86;21078;-52
2023/01/08 11:07:39;;;;;;;30.77;10.70;;;;;;;-3.82;68.44;101667.84;1678062;84;21020;-51
2023/01/08 11:10:20;;;;;;;33.95;11.75;;;;;;;-3.82;68.17;101671.86;1673308;85;21065;-52
2023/01/08 11:12:54;;;;;;;30.60;11.93;;;;;;;-3.82;68.17;101668.32;1664385;86;21059;-52
2023/01/08 11:15:35;;;;;;;35.92;12.90;;;;;;;-3.84;68.25;101667.05;1684132;84;21056;-52
2023/01/08 11:18:20;;;;;;;30.48;11.90;;;;;;;-3.81;68.16;101656.20;1691510;85;21048;-51
2023/01/08 11:20:51;;;;;;;31.40;12.30;;;;;;;-3.78;67.95;101652.50;1691466;84;21003;-53
2023/01/08 11:23:23;;;;;;;31.90;13.00;;;;;;;-3.79;67.81;101660.14;1666163;85;21124;-52
2023/01/08 11:26:08;;;;;;;38.02;13.93;;;;;;;-3.77;67.95;101659.12;1666963;85;21048;-54
2023/01/08 11:28:59;;;;;;;38.33;13.98;;;;;;;-3.70;67.95;101660.55;1691231;85;21169;-52
2023/01/08 11:31:36;;;;;;;29.32;12.88;;;;;;;-3.65;67.70;101661.19;1691356;84;21004;-51
2023/01/08 11:34:30;;;;;;;34.70;13.05;;;;;;;-3.64;67.52;101662.06;1691278;84;21076;-52
2023/01/08 11:37:11;;;;;;;28.70;11.53;;;;;;;-3.62;67.62;101666.39;1654783;86;21061;-52
2023/01/08 11:39:41;;;;;;;34.60;12.85;;;;;;;-3.64;67.01;101663.40;1659519;85;21010;-52